Time;durP1;ratioP1;P1;durP2;ratioP2;P2;SDS_P1;SDS_P2;PMS_P1;PMS_P2;Temp;Humidity;BMP_temperature;BMP_pressure;BME280_temperature;BME280_humidity;BME280_pressure;Samples;Min_cycle;Max_cycle;Signal;HPM_P1;HPM_P2
2022/12/02 00:00:02;;;;;;;9.10;8.80;;;4.60;99.90;;;;;;5102806;28;20222;-80
2022/12/02 00:02:59;;;;;;;9.13;8.83;;;4.60;99.90;;;;;;5101593;28;20232;-80
2022/12/02 00:05:50;;;;;;;9.20;8.90;;;4.60;99.90;;;;;;5099714;28;20233;-82
2022/12/02 00:08:22;;;;;;;8.90;8.70;;;4.50;99.90;;;;;;5101919;28;20211;-81
2022/12/02 00:10:52;;;;;;;8.83;8.63;;;4.50;99.90;;;;;;5102250;28;20233;-80
2022/12/02 00:13:29;;;;;;;8.70;8.50;;;4.40;99.90;;;;;;5100941;28;20229;-82
2022/12/02 00:15:58;;;;;;;8.97;8.73;;;4.40;99.90;;;;;;5101144;28;20224;-82
2022/12/02 00:18:28;;;;;;;8.90;8.70;;;4.30;99.90;;;;;;5100367;28;20226;-82
2022/12/02 00:20:57;;;;;;;8.87;8.67;;;4.30;99.90;;;;;;5100220;28;20214;-82
2022/12/02 00:23:25;;;;;;;8.93;8.73;;;4.20;99.90;;;;;;5101451;28;20294;-80
2022/12/02 00:25:54;;;;;;;8.80;8.60;;;4.10;99.90;;;;;;5101426;28;20240;-80
2022/12/02 00:28:22;;;;;;;8.50;8.30;;;4.10;99.90;;;;;;5101272;28;20222;-81
2022/12/02 00:30:50;;;;;;;8.47;8.27;;;4.10;99.90;;;;;;5100864;28;20230;-81
2022/12/02 00:33:18;;;;;;;8.80;8.60;;;4.00;99.90;;;;;;5100969;28;20233;-82
2022/12/02 00:35:46;;;;;;;8.80;8.60;;;4.00;99.90;;;;;;5093698;28;20226;-83
2022/12/02 00:38:15;;;;;;;8.80;8.60;;;4.10;99.90;;;;;;5087470;28;20253;-84
2022/12/02 00:40:43;;;;;;;8.60;8.40;;;4.20;99.90;;;;;;5087742;28;20248;-83
2022/12/02 00:48:41;;;;;;;8.60;8.40;;;4.30;99.90;;;;;;5092963;28;20206;-84
2022/12/02 00:51:09;;;;;;;8.73;8.53;;;4.20;99.90;;;;;;5084383;28;21009;-84
2022/12/02 00:53:38;;;;;;;8.50;8.30;;;4.20;99.90;;;;;;5083338;28;20265;-84
2022/12/02 00:56:07;;;;;;;8.90;8.70;;;4.20;99.90;;;;;;5083551;28;20246;-83
2022/12/02 00:58:34;;;;;;;8.50;8.30;;;4.20;99.90;;;;;;5082617;28;20231;-83
2022/12/02 01:01:02;;;;;;;8.50;8.30;;;4.30;99.90;;;;;;5082567;28;20226;-84
2022/12/02 01:03:30;;;;;;;8.40;8.20;;;4.30;99.90;;;;;;5082528;28;21145;-84
2022/12/02 01:05:57;;;;;;;8.40;8.20;;;4.40;99.90;;;;;;5082341;28;20693;-84
2022/12/02 01:08:26;;;;;;;8.40;8.20;;;4.40;99.90;;;;;;5082181;28;20226;-84
2022/12/02 01:10:56;;;;;;;8.57;8.37;;;4.40;99.90;;;;;;5082659;28;20226;-84
2022/12/02 01:13:25;;;;;;;8.60;8.40;;;4.40;99.90;;;;;;5082368;28;20320;-84
2022/12/02 01:15:57;;;;;;;8.80;8.60;;;4.50;99.90;;;;;;5082814;28;20234;-83
2022/12/02 01:18:25;;;;;;;8.60;8.40;;;4.50;99.90;;;;;;5080750;28;20261;-84
2022/12/02 01:20:53;;;;;;;8.60;8.40;;;4.60;99.90;;;;;;5077661;28;20260;-84
2022/12/02 01:23:21;;;;;;;8.53;8.33;;;4.60;99.90;;;;;;5078999;28;20238;-84
2022/12/02 01:25:49;;;;;;;8.50;8.30;;;4.60;99.90;;;;;;5079246;28;20314;-84
2022/12/02 01:28:18;;;;;;;8.43;8.23;;;4.60;99.90;;;;;;5079943;28;20280;-84
2022/12/02 01:30:46;;;;;;;8.50;8.30;;;4.70;99.90;;;;;;5078122;28;20245;-83
2022/12/02 01:33:14;;;;;;;8.40;8.20;;;4.60;99.90;;;;;;5079152;28;20324;-84
2022/12/02 01:35:42;;;;;;;8.57;8.37;;;4.50;99.90;;;;;;5089405;28;20236;-83
2022/12/02 01:38:10;;;;;;;8.53;8.33;;;4.60;99.90;;;;;;5087234;28;20234;-84
2022/12/02 01:40:38;;;;;;;8.40;8.20;;;4.60;99.90;;;;;;5084395;28;20236;-84
2022/12/02 01:43:05;;;;;;;8.33;8.13;;;4.60;99.90;;;;;;5081594;28;20325;-83
2022/12/02 01:45:35;;;;;;;8.60;8.40;;;4.60;99.90;;;;;;5080835;28;20329;-84
2022/12/02 01:48:04;;;;;;;8.60;8.40;;;4.60;99.90;;;;;;5080228;28;20286;-85
2022/12/02 01:50:33;;;;;;;8.60;8.40;;;4.50;99.90;;;;;;5081002;28;20229;-84
2022/12/02 01:53:01;;;;;;;8.70;8.50;;;4.50;99.90;;;;;;5080033;28;20257;-84
2022/12/02 01:55:30;;;;;;;8.40;8.20;;;4.50;99.90;;;;;;5079889;28;20236;-84
2022/12/02 01:57:59;;;;;;;8.10;7.90;;;4.50;99.90;;;;;;5080397;28;20299;-85
2022/12/02 02:00:27;;;;;;;8.30;8.10;;;4.40;99.90;;;;;;5078929;28;20242;-83
2022/12/02 02:02:57;;;;;;;8.40;8.20;;;4.30;99.90;;;;;;5079227;28;20234;-83
2022/12/02 02:05:29;;;;;;;8.40;8.20;;;4.30;99.90;;;;;;5079704;28;20230;-85
2022/12/02 02:08:02;;;;;;;8.20;8.00;;;4.30;99.90;;;;;;5079534;28;20318;-85
2022/12/02 02:10:30;;;;;;;8.40;8.20;;;4.20;99.90;;;;;;5098457;28;20198;-81
2022/12/02 02:12:58;;;;;;;8.30;8.10;;;4.20;99.90;;;;;;5100050;28;20222;-82
2022/12/02 02:15:27;;;;;;;7.97;7.77;;;4.30;99.90;;;;;;5083344;28;20253;-83
2022/12/02 02:17:57;;;;;;;8.20;8.00;;;4.30;99.90;;;;;;5079326;28;20253;-83
2022/12/02 02:20:27;;;;;;;8.20;8.00;;;4.30;99.90;;;;;;5079455;28;20234;-83
2022/12/02 02:23:12;;;;;;;8.00;7.80;;;4.30;99.90;;;;;;5078403;28;20234;-83
2022/12/02 02:25:44;;;;;;;8.10;7.90;;;4.40;99.90;;;;;;5078733;28;20328;-82
2022/12/02 02:28:12;;;;;;;8.13;7.93;;;4.50;99.90;;;;;;5078718;28;20253;-84
2022/12/02 02:30:41;;;;;;;8.03;7.83;;;4.50;99.90;;;;;;5079317;28;20210;-83
2022/12/02 02:33:12;;;;;;;7.80;7.60;;;4.60;99.90;;;;;;5082164;28;20257;-83
2022/12/02 02:35:42;;;;;;;8.10;7.90;;;4.40;99.90;;;;;;5082726;28;20244;-83
2022/12/02 02:38:15;;;;;;;7.80;7.60;;;4.40;99.90;;;;;;5082953;28;20241;-83
2022/12/02 02:40:44;;;;;;;7.87;7.67;;;4.40;99.90;;;;;;5084883;28;20249;-83
2022/12/02 02:43:12;;;;;;;7.80;7.60;;;4.30;99.90;;;;;;5083975;28;20265;-84
2022/12/02 02:45:42;;;;;;;7.80;7.60;;;4.20;99.90;;;;;;5083699;28;20250;-84
2022/12/02 02:48:12;;;;;;;7.97;7.77;;;4.20;99.90;;;;;;5083558;28;20266;-84
2022/12/02 02:50:45;;;;;;;8.00;7.80;;;4.00;99.90;;;;;;5082408;28;20238;-84
2022/12/02 02:53:16;;;;;;;7.83;7.63;;;4.00;99.90;;;;;;5082231;28;20234;-83
2022/12/02 02:55:44;;;;;;;8.20;8.00;;;3.90;99.90;;;;;;5082739;28;20226;-83
2022/12/02 02:58:18;;;;;;;8.03;7.83;;;3.80;99.90;;;;;;5082403;28;20713;-84
2022/12/02 03:00:49;;;;;;;7.90;7.70;;;3.70;99.90;;;;;;5084178;28;20257;-83
2022/12/02 03:03:21;;;;;;;7.90;7.70;;;3.80;99.90;;;;;;5083507;28;20258;-84
2022/12/02 03:05:51;;;;;;;7.80;7.60;;;3.80;99.90;;;;;;5083604;28;20349;-83
2022/12/02 03:08:22;;;;;;;7.80;7.60;;;3.80;99.90;;;;;;5084556;28;20697;-83
2022/12/02 03:10:50;;;;;;;8.00;7.80;;;3.80;99.90;;;;;;5083821;28;20222;-82
2022/12/02 03:13:18;;;;;;;8.00;7.80;;;3.80;99.90;;;;;;5083672;28;20739;-83
2022/12/02 03:15:46;;;;;;;7.90;7.70;;;3.80;99.90;;;;;;5083599;28;20277;-83
2022/12/02 03:18:14;;;;;;;7.93;7.73;;;3.80;99.90;;;;;;5082996;28;20313;-83
2022/12/02 03:20:42;;;;;;;7.90;7.70;;;3.80;99.90;;;;;;5084508;28;20234;-82
2022/12/02 03:23:10;;;;;;;8.00;7.80;;;3.90;99.90;;;;;;5084026;28;20241;-82
2022/12/02 03:25:39;;;;;;;7.80;7.60;;;3.90;99.90;;;;;;5098738;28;20226;-82
2022/12/02 03:28:10;;;;;;;7.77;7.57;;;3.90;99.90;;;;;;5098377;28;20221;-83
2022/12/02 03:30:38;;;;;;;8.00;7.80;;;3.90;99.90;;;;;;5098456;28;20260;-82
2022/12/02 03:33:07;;;;;;;8.00;7.80;;;3.90;99.90;;;;;;5096894;28;20269;-82
2022/12/02 03:35:36;;;;;;;7.53;7.33;;;3.90;99.90;;;;;;5099580;28;20232;-81
2022/12/02 03:38:03;;;;;;;7.77;7.57;;;3.80;99.90;;;;;;5103161;28;20214;-82
2022/12/02 03:40:31;;;;;;;7.60;7.40;;;3.90;99.90;;;;;;5100473;28;20222;-83
2022/12/02 03:43:00;;;;;;;7.47;7.27;;;3.90;99.90;;;;;;5087355;28;20293;-82
2022/12/02 03:45:28;;;;;;;7.50;7.30;;;3.80;99.90;;;;;;5086854;28;20249;-82
2022/12/02 03:48:03;;;;;;;7.60;7.40;;;3.70;99.90;;;;;;5084253;28;20304;-83
2022/12/02 03:50:31;;;;;;;7.50;7.30;;;3.70;99.90;;;;;;5089007;28;20315;-82
2022/12/02 03:52:59;;;;;;;7.63;7.43;;;3.70;99.90;;;;;;5086097;28;20258;-83
2022/12/02 03:55:27;;;;;;;7.63;7.43;;;3.70;99.90;;;;;;5086101;28;20245;-83
2022/12/02 03:57:55;;;;;;;7.40;7.20;;;3.70;99.90;;;;;;5084403;28;20238;-83
2022/12/02 04:00:25;;;;;;;7.40;7.20;;;3.70;99.90;;;;;;5084964;28;20234;-83
2022/12/02 04:02:53;;;;;;;7.67;7.47;;;3.70;99.90;;;;;;5084616;28;20238;-83
2022/12/02 04:05:20;;;;;;;7.70;7.50;;;3.70;99.90;;;;;;5088198;28;20223;-83
2022/12/02 04:07:48;;;;;;;7.60;7.40;;;3.70;99.90;;;;;;5096136;28;20313;-83
2022/12/02 04:10:16;;;;;;;7.40;7.20;;;3.70;99.90;;;;;;5092810;28;20240;-83
2022/12/02 04:12:44;;;;;;;7.50;7.30;;;3.70;99.90;;;;;;5090178;28;20252;-83
2022/12/02 04:15:12;;;;;;;7.67;7.47;;;3.80;99.90;;;;;;5087399;28;20234;-84
2022/12/02 04:17:41;;;;;;;7.67;7.47;;;3.80;99.90;;;;;;5086819;28;20234;-83
2022/12/02 04:20:11;;;;;;;7.77;7.57;;;3.80;99.90;;;;;;5086150;28;20237;-83
2022/12/02 04:22:39;;;;;;;7.70;7.50;;;3.80;99.90;;;;;;5085396;28;20266;-83
2022/12/02 04:25:08;;;;;;;7.70;7.50;;;3.80;99.90;;;;;;5086079;28;20286;-82
2022/12/02 04:27:36;;;;;;;7.57;7.37;;;3.80;99.90;;;;;;5086233;28;20258;-82
2022/12/02 04:30:04;;;;;;;7.63;7.43;;;3.80;99.90;;;;;;5084890;28;20234;-82
2022/12/02 04:32:32;;;;;;;7.60;7.40;;;3.70;99.90;;;;;;5085049;28;20289;-83
2022/12/02 04:35:01;;;;;;;7.60;7.40;;;3.60;99.90;;;;;;5084822;28;20268;-83
2022/12/02 04:37:28;;;;;;;7.73;7.53;;;3.60;99.90;;;;;;5085102;28;20273;-83
2022/12/02 04:39:56;;;;;;;7.40;7.20;;;3.60;99.90;;;;;;5085470;28;20317;-83
2022/12/02 04:42:24;;;;;;;7.40;7.20;;;3.60;99.90;;;;;;5083484;28;20327;-83
2022/12/02 04:44:53;;;;;;;7.13;6.93;;;3.50;99.90;;;;;;5084267;28;20237;-83
2022/12/02 04:47:20;;;;;;;7.30;7.10;;;3.50;99.90;;;;;;5084521;28;20296;-83
2022/12/02 04:49:48;;;;;;;7.17;6.97;;;3.40;99.90;;;;;;5099812;28;20229;-81
2022/12/02 04:52:17;;;;;;;7.20;7.00;;;3.40;99.90;;;;;;5100693;28;20230;-82
2022/12/02 04:54:45;;;;;;;7.20;7.00;;;3.40;99.90;;;;;;5086696;28;20226;-83
2022/12/02 04:57:13;;;;;;;7.50;7.30;;;3.40;99.90;;;;;;5086050;28;20337;-83
2022/12/02 04:59:41;;;;;;;7.60;7.40;;;3.40;99.90;;;;;;5091631;28;20222;-81
2022/12/02 05:02:08;;;;;;;7.33;7.13;;;3.50;99.90;;;;;;5100417;28;20238;-83
2022/12/02 05:04:36;;;;;;;7.40;7.20;;;3.50;99.90;;;;;;5089257;28;20284;-83
2022/12/02 05:07:04;;;;;;;7.30;7.10;;;3.50;99.90;;;;;;5079993;28;20226;-83
2022/12/02 05:09:33;;;;;;;7.40;7.20;;;3.60;99.90;;;;;;5084038;28;20242;-83
2022/12/02 05:12:00;;;;;;;7.40;7.20;;;3.60;99.90;;;;;;5082525;28;20333;-83
2022/12/02 05:14:28;;;;;;;7.30;7.10;;;3.60;99.90;;;;;;5115496;22;20252;-80
2022/12/02 05:17:00;;;;;;;7.27;7.07;;;3.60;99.90;;;;;;5096589;28;20245;-80
2022/12/02 05:19:30;;;;;;;7.20;7.00;;;3.60;99.90;;;;;;5096262;28;20206;-81
2022/12/02 05:21:59;;;;;;;7.37;7.17;;;3.50;99.90;;;;;;5096478;28;20269;-81
2022/12/02 05:24:29;;;;;;;7.60;7.40;;;3.50;99.90;;;;;;5097250;28;20235;-80
2022/12/02 05:27:18;;;;;;;7.70;7.50;;;3.40;99.90;;;;;;5097304;28;20226;-80
2022/12/02 05:29:48;;;;;;;7.73;7.53;;;3.50;99.90;;;;;;5097281;28;20215;-80
2022/12/02 05:32:16;;;;;;;7.50;7.30;;;3.50;99.90;;;;;;5097655;28;20240;-80
2022/12/02 05:34:46;;;;;;;7.43;7.23;;;3.50;99.90;;;;;;5096312;28;20234;-81
2022/12/02 05:37:18;;;;;;;7.10;6.90;;;3.50;99.90;;;;;;5096692;28;20231;-80
2022/12/02 05:39:46;;;;;;;7.30;7.10;;;3.50;99.90;;;;;;5096590;28;20214;-80
2022/12/02 05:42:17;;;;;;;7.23;7.03;;;3.40;99.90;;;;;;5097148;28;20258;-81
2022/12/02 05:44:45;;;;;;;7.40;7.20;;;3.40;99.90;;;;;;5097904;28;20257;-80
2022/12/02 05:47:15;;;;;;;7.40;7.20;;;3.30;99.90;;;;;;5098066;28;20285;-80
2022/12/02 05:49:45;;;;;;;7.40;7.20;;;3.30;99.90;;;;;;5097733;28;20261;-80
2022/12/02 05:52:23;;;;;;;7.10;6.90;;;3.20;99.90;;;;;;5096964;28;20218;-81
2022/12/02 05:54:59;;;;;;;7.50;7.30;;;3.10;99.90;;;;;;5097176;28;20222;-79
2022/12/02 05:57:37;;;;;;;7.40;7.20;;;3.10;99.90;;;;;;5097209;28;20320;-80
2022/12/02 06:00:18;;;;;;;7.50;7.30;;;3.00;99.90;;;;;;5097236;28;20233;-80
2022/12/02 06:02:48;;;;;;;7.40;7.20;;;3.10;99.90;;;;;;5096751;28;20290;-80
2022/12/02 06:05:26;;;;;;;7.60;7.40;;;3.10;99.90;;;;;;5096213;28;20241;-80
2022/12/02 06:08:03;;;;;;;7.60;7.40;;;3.10;99.90;;;;;;5096313;28;20250;-80
2022/12/02 06:10:32;;;;;;;7.80;7.60;;;3.10;99.90;;;;;;5093333;28;20241;-80
2022/12/02 06:13:18;;;;;;;7.67;7.47;;;3.10;99.90;;;;;;5095753;28;20329;-81
2022/12/02 06:15:47;;;;;;;7.63;7.43;;;3.10;99.90;;;;;;5093645;28;20237;-81
2022/12/02 06:18:17;;;;;;;7.80;7.60;;;3.10;99.90;;;;;;5091739;28;20226;-83
2022/12/02 06:20:46;;;;;;;7.73;7.53;;;3.10;99.90;;;;;;5090625;28;20245;-81
2022/12/02 06:23:25;;;;;;;7.67;7.47;;;3.10;99.90;;;;;;5091153;28;21159;-81
2022/12/02 06:25:54;;;;;;;7.73;7.53;;;3.10;99.90;;;;;;5093704;28;20254;-80
2022/12/02 06:28:32;;;;;;;7.70;7.50;;;3.10;99.90;;;;;;5092210;28;20241;-81
2022/12/02 06:31:14;;;;;;;7.80;7.60;;;3.10;99.90;;;;;;5090944;28;20214;-80
2022/12/02 06:33:42;;;;;;;7.70;7.50;;;3.10;99.90;;;;;;5089561;28;20266;-81
2022/12/02 06:36:18;;;;;;;8.10;7.90;;;3.20;99.90;;;;;;5090441;28;20254;-80
2022/12/02 06:38:51;;;;;;;7.83;7.63;;;3.20;99.90;;;;;;5090401;28;20232;-80
2022/12/02 06:41:26;;;;;;;7.70;7.50;;;3.20;99.90;;;;;;5089175;28;20275;-80
2022/12/02 06:46:51;;;;;;;7.50;7.30;;;3.20;99.90;;;;;;5031176;28;20220;-80
2022/12/02 06:49:21;;;;;;;7.10;6.90;;;3.20;99.90;;;;;;5089713;28;20222;-80
2022/12/02 06:51:53;;;;;;;7.43;7.23;;;3.20;99.90;;;;;;5089126;28;20233;-83
2022/12/02 06:54:28;;;;;;;7.80;7.60;;;3.10;99.90;;;;;;5090206;28;20237;-82
2022/12/02 06:56:58;;;;;;;7.83;7.63;;;3.10;99.90;;;;;;5090305;28;20226;-81
2022/12/02 06:59:30;;;;;;;7.77;7.57;;;3.10;99.90;;;;;;5088453;28;20253;-81
2022/12/02 07:02:05;;;;;;;7.80;7.60;;;3.10;99.90;;;;;;5088564;28;20222;-81
2022/12/02 07:04:44;;;;;;;8.10;7.90;;;3.10;99.90;;;;;;5087099;28;20398;-84
2022/12/02 07:07:24;;;;;;;8.10;7.90;;;3.20;99.90;;;;;;5088450;28;20236;-82
2022/12/02 07:10:02;;;;;;;8.10;7.90;;;3.20;99.90;;;;;;5088306;28;20222;-82
2022/12/02 07:12:41;;;;;;;8.10;7.90;;;3.10;99.90;;;;;;5086948;28;20222;-82
2022/12/02 07:15:27;;;;;;;8.30;8.10;;;3.20;99.90;;;;;;5091218;28;20233;-82
2022/12/02 07:18:03;;;;;;;8.00;7.80;;;3.20;99.90;;;;;;5092502;28;20245;-81
2022/12/02 07:20:35;;;;;;;8.17;7.97;;;3.20;99.90;;;;;;5094609;28;20256;-82
2022/12/02 07:23:14;;;;;;;8.10;7.90;;;3.30;99.90;;;;;;5092425;28;20246;-81
2022/12/02 07:25:44;;;;;;;8.00;7.80;;;3.30;99.90;;;;;;5092107;28;20226;-81
2022/12/02 07:28:31;;;;;;;7.70;7.50;;;3.40;99.90;;;;;;5091730;28;20246;-82
2022/12/02 07:31:11;;;;;;;8.00;7.80;;;3.40;99.90;;;;;;5091172;28;20233;-82
2022/12/02 07:33:38;;;;;;;7.70;7.50;;;3.40;99.90;;;;;;5091253;28;20317;-82
2022/12/02 07:36:17;;;;;;;7.90;7.70;;;3.40;99.90;;;;;;5090434;28;20234;-85
2022/12/02 07:38:45;;;;;;;8.00;7.80;;;3.50;99.90;;;;;;5090689;28;20280;-85
2022/12/02 07:41:18;;;;;;;7.57;7.37;;;3.60;99.90;;;;;;5089219;28;20304;-82
2022/12/02 07:43:45;;;;;;;7.40;7.20;;;3.70;99.90;;;;;;5083686;28;20214;-83
2022/12/02 07:46:15;;;;;;;7.50;7.30;;;3.60;99.90;;;;;;5096544;28;20284;-83
2022/12/02 07:48:44;;;;;;;7.90;7.70;;;3.60;99.90;;;;;;5110781;28;20230;-83
2022/12/02 07:51:12;;;;;;;7.90;7.70;;;3.70;99.90;;;;;;5111540;28;20256;-82
2022/12/02 07:53:42;;;;;;;7.50;7.30;;;3.70;99.90;;;;;;5113899;28;20225;-81
2022/12/02 07:56:13;;;;;;;7.43;7.23;;;3.70;99.90;;;;;;5115756;28;20243;-84
2022/12/02 07:58:41;;;;;;;7.73;7.53;;;3.70;99.90;;;;;;5121994;28;20277;-81
2022/12/02 08:01:11;;;;;;;7.90;7.70;;;3.60;99.90;;;;;;5121932;28;20292;-83
2022/12/02 08:03:42;;;;;;;7.93;7.73;;;3.60;99.90;;;;;;5111658;28;20390;-83
2022/12/02 08:06:09;;;;;;;8.40;8.20;;;3.50;99.90;;;;;;5093967;28;20307;-84
2022/12/02 08:08:38;;;;;;;8.40;8.20;;;3.30;99.90;;;;;;5085723;28;20234;-81
2022/12/02 08:11:07;;;;;;;8.53;8.33;;;3.30;99.90;;;;;;5088413;28;20238;-81
2022/12/02 08:13:37;;;;;;;8.63;8.43;;;3.20;99.90;;;;;;5088338;28;20230;-81
2022/12/02 08:16:07;;;;;;;8.50;8.30;;;3.20;99.90;;;;;;5089371;28;20298;-81
2022/12/02 08:18:36;;;;;;;8.37;8.17;;;3.20;99.90;;;;;;5089174;28;20228;-80
2022/12/02 08:21:14;;;;;;;8.57;8.37;;;3.20;99.90;;;;;;5088331;28;20246;-81
2022/12/02 08:23:44;;;;;;;8.60;8.40;;;3.20;99.90;;;;;;5095800;28;20230;-81
2022/12/02 08:26:13;;;;;;;8.80;8.60;;;3.30;99.90;;;;;;5089343;28;20230;-81
2022/12/02 08:28:45;;;;;;;9.17;8.87;;;3.40;99.90;;;;;;5089248;28;20265;-81
2022/12/02 08:31:13;;;;;;;8.83;8.63;;;3.40;99.90;;;;;;5096520;28;20219;-80
2022/12/02 08:33:42;;;;;;;8.90;8.70;;;3.40;99.90;;;;;;5098865;28;20233;-81
2022/12/02 08:36:14;;;;;;;8.80;8.60;;;3.40;99.90;;;;;;5093516;28;20237;-81
2022/12/02 08:38:42;;;;;;;8.90;8.70;;;3.40;99.90;;;;;;5091680;28;20234;-81
2022/12/02 08:41:10;;;;;;;9.20;8.90;;;3.40;99.90;;;;;;5088610;28;20254;-81
2022/12/02 08:43:39;;;;;;;9.20;8.90;;;3.40;99.90;;;;;;5083051;28;20234;-82
2022/12/02 08:46:08;;;;;;;8.87;8.67;;;3.40;99.90;;;;;;5088864;28;20233;-81
2022/12/02 08:48:47;;;;;;;9.07;8.77;;;3.40;99.90;;;;;;5089628;28;20222;-81
2022/12/02 08:51:25;;;;;;;9.10;8.80;;;3.30;99.90;;;;;;5088732;28;20225;-82
2022/12/02 08:53:55;;;;;;;8.90;8.70;;;3.30;99.90;;;;;;5089556;28;20316;-82
2022/12/02 08:56:24;;;;;;;8.60;8.40;;;3.40;99.90;;;;;;5089969;28;20253;-82
2022/12/02 08:58:54;;;;;;;8.90;8.70;;;3.40;99.90;;;;;;5091673;28;20281;-81
2022/12/02 09:01:23;;;;;;;8.90;8.70;;;3.50;99.90;;;;;;5088875;28;20242;-81
2022/12/02 09:03:53;;;;;;;8.90;8.70;;;3.50;99.90;;;;;;5089351;28;20229;-81
2022/12/02 09:06:24;;;;;;;9.07;8.80;;;3.50;99.90;;;;;;5088591;28;20240;-82
2022/12/02 09:08:52;;;;;;;9.00;8.80;;;3.60;99.90;;;;;;5091028;28;20226;-81
2022/12/02 09:11:20;;;;;;;9.30;9.00;;;3.60;99.90;;;;;;5090325;28;20230;-82
2022/12/02 09:13:50;;;;;;;9.17;8.87;;;3.70;99.90;;;;;;5090289;28;20747;-81
2022/12/02 09:16:19;;;;;;;8.70;8.50;;;3.70;99.90;;;;;;5091625;28;20246;-82
2022/12/02 09:18:54;;;;;;;8.40;8.20;;;3.70;99.90;;;;;;5090018;28;20258;-81
2022/12/02 09:21:29;;;;;;;8.77;8.57;;;3.80;99.90;;;;;;5088674;28;20252;-81
2022/12/02 09:23:56;;;;;;;8.90;8.70;;;3.80;99.90;;;;;;5088379;28;20234;-82
2022/12/02 09:26:30;;;;;;;8.90;8.70;;;3.70;99.90;;;;;;5087957;28;20314;-82
2022/12/02 09:28:57;;;;;;;9.23;8.93;;;3.60;99.90;;;;;;5087594;28;20269;-82
2022/12/02 09:31:26;;;;;;;9.40;9.10;;;3.50;99.90;;;;;;5087456;28;20278;-82
2022/12/02 09:33:59;;;;;;;9.23;8.93;;;3.40;99.90;;;;;;5087548;28;20242;-81
2022/12/02 09:36:28;;;;;;;9.40;9.10;;;3.40;99.90;;;;;;5088782;28;20230;-82
2022/12/02 09:38:55;;;;;;;9.30;9.00;;;3.30;99.90;;;;;;5088473;28;20239;-82
2022/12/02 09:41:25;;;;;;;9.30;9.00;;;3.30;99.90;;;;;;5087136;28;20222;-82
2022/12/02 09:43:54;;;;;;;9.50;9.20;;;3.30;99.90;;;;;;5087738;28;20229;-81
2022/12/02 09:46:24;;;;;;;9.40;9.10;;;3.30;99.90;;;;;;5088476;28;20233;-82
2022/12/02 09:48:52;;;;;;;9.40;9.10;;;3.30;99.90;;;;;;5087995;28;20230;-81
2022/12/02 09:51:22;;;;;;;9.20;8.90;;;3.20;99.90;;;;;;5088910;28;20229;-82
2022/12/02 09:53:55;;;;;;;9.43;9.13;;;3.30;99.90;;;;;;5088906;28;20222;-82
2022/12/02 09:56:23;;;;;;;9.30;9.00;;;3.30;99.90;;;;;;5089331;28;20230;-82
2022/12/02 09:59:00;;;;;;;9.40;9.10;;;3.30;99.90;;;;;;5089113;28;20256;-81
2022/12/02 10:01:28;;;;;;;9.23;8.93;;;3.20;99.90;;;;;;5088364;28;20241;-82
2022/12/02 10:03:58;;;;;;;9.10;8.80;;;3.20;99.90;;;;;;5088491;28;20249;-81
2022/12/02 10:06:29;;;;;;;9.43;9.13;;;3.20;99.90;;;;;;5092010;28;20261;-81
2022/12/02 10:08:59;;;;;;;9.47;9.17;;;3.20;99.90;;;;;;5096485;28;20238;-81
2022/12/02 10:11:35;;;;;;;9.60;9.30;;;3.10;99.90;;;;;;5090062;28;20253;-82
2022/12/02 10:14:08;;;;;;;9.27;8.97;;;3.10;99.90;;;;;;5090599;28;20226;-82
2022/12/02 10:16:36;;;;;;;9.20;8.90;;;3.00;99.90;;;;;;5096577;28;20241;-81
2022/12/02 10:19:05;;;;;;;9.33;9.03;;;3.00;99.90;;;;;;5095718;28;20242;-81
2022/12/02 10:21:33;;;;;;;9.13;8.83;;;3.00;99.90;;;;;;5090921;28;20297;-82
2022/12/02 10:24:12;;;;;;;9.33;9.03;;;3.00;99.90;;;;;;5090641;28;20231;-81
2022/12/02 10:26:49;;;;;;;9.30;9.00;;;3.00;99.90;;;;;;5091561;28;20280;-82
2022/12/02 10:29:20;;;;;;;9.20;8.90;;;3.10;99.90;;;;;;5091739;28;20233;-81
2022/12/02 10:31:57;;;;;;;8.90;8.70;;;3.10;99.90;;;;;;5090335;28;20325;-81
2022/12/02 10:34:27;;;;;;;8.87;8.67;;;3.20;99.90;;;;;;5088500;28;20285;-82
2022/12/02 10:36:57;;;;;;;8.93;8.73;;;3.30;99.90;;;;;;5087173;28;20284;-81
2022/12/02 10:39:34;;;;;;;9.20;8.90;;;3.20;99.90;;;;;;5088281;28;20294;-82
2022/12/02 10:42:22;;;;;;;9.10;8.80;;;3.10;99.90;;;;;;5087571;28;20306;-81
2022/12/02 10:45:17;;;;;;;9.30;9.00;;;3.20;99.90;;;;;;5086398;28;20226;-82
2022/12/02 10:47:46;;;;;;;9.20;8.90;;;3.10;99.90;;;;;;5087324;28;20333;-82
2022/12/02 10:50:24;;;;;;;9.20;8.90;;;3.10;99.90;;;;;;5086490;28;20246;-81
2022/12/02 10:52:56;;;;;;;9.10;8.80;;;3.10;99.90;;;;;;5088621;28;20282;-81
2022/12/02 10:55:33;;;;;;;9.10;8.80;;;3.20;99.90;;;;;;5090203;28;20313;-81
2022/12/02 10:58:01;;;;;;;8.90;8.70;;;3.20;99.90;;;;;;5091178;28;20244;-82
2022/12/02 11:00:31;;;;;;;8.70;8.50;;;3.20;99.90;;;;;;5091481;28;20249;-82
2022/12/02 11:03:00;;;;;;;9.00;8.70;;;3.30;99.90;;;;;;5091575;28;20290;-81
2022/12/02 11:05:31;;;;;;;9.10;8.80;;;3.40;99.90;;;;;;5092448;28;20249;-82
2022/12/02 11:08:02;;;;;;;8.77;8.57;;;3.40;99.90;;;;;;5091224;28;20257;-81
2022/12/02 11:10:38;;;;;;;9.23;8.93;;;3.50;99.90;;;;;;5090562;28;20257;-81
2022/12/02 11:13:42;;;;;;;9.17;8.87;;;3.50;99.90;;;;;;5090861;28;20260;-81
2022/12/02 11:17:05;;;;;;;8.90;8.70;;;3.50;99.90;;;;;;5071903;22;20243;-80
2022/12/02 11:19:47;;;;;;;8.90;8.70;;;3.60;99.90;;;;;;5029926;28;20227;-80
2022/12/02 11:23:07;;;;;;;9.10;8.80;;;3.60;99.90;;;;;;5043062;28;20314;-79
2022/12/02 11:26:09;;;;;;;9.10;8.80;;;3.60;99.90;;;;;;5055918;28;20237;-79
2022/12/02 11:29:16;;;;;;;9.30;9.00;;;3.50;99.90;;;;;;5060497;28;20246;-80
2022/12/02 11:32:02;;;;;;;9.30;9.00;;;3.50;99.90;;;;;;5060667;28;20729;-80
2022/12/02 11:34:49;;;;;;;9.60;9.30;;;3.40;99.90;;;;;;5061394;28;20266;-80
2022/12/02 11:37:42;;;;;;;9.37;9.07;;;3.40;99.90;;;;;;5061276;28;20231;-80
2022/12/02 11:40:59;;;;;;;9.43;9.13;;;3.30;99.90;;;;;;5061591;28;20274;-79
2022/12/02 11:44:18;;;;;;;9.30;9.00;;;3.30;99.90;;;;;;5042035;28;20255;-79
2022/12/02 11:46:49;;;;;;;9.23;8.93;;;3.40;99.90;;;;;;5041563;28;20248;-80
2022/12/02 11:49:32;;;;;;;8.77;8.57;;;3.40;99.90;;;;;;5042022;28;20305;-79
2022/12/02 11:52:21;;;;;;;8.97;8.77;;;3.40;99.90;;;;;;5051451;28;20226;-80
2022/12/02 11:55:11;;;;;;;9.10;8.80;;;3.40;99.90;;;;;;5061270;28;20269;-81
2022/12/02 11:57:47;;;;;;;8.90;8.70;;;3.40;99.90;;;;;;5055678;28;20249;-80
2022/12/02 12:00:29;;;;;;;8.67;8.47;;;3.40;99.90;;;;;;5063631;28;20230;-79
2022/12/02 12:03:13;;;;;;;8.70;8.50;;;3.40;99.90;;;;;;5056593;28;20277;-79
2022/12/02 12:05:43;;;;;;;8.90;8.70;;;3.40;99.90;;;;;;5062192;28;20272;-79
2022/12/02 12:08:10;;;;;;;8.70;8.50;;;3.30;99.90;;;;;;5061762;28;20282;-80
2022/12/02 12:10:40;;;;;;;8.77;8.57;;;3.10;99.90;;;;;;5065117;28;20278;-79
2022/12/02 12:13:18;;;;;;;8.60;8.40;;;3.00;99.90;;;;;;5074988;28;20215;-79
2022/12/02 12:15:54;;;;;;;8.70;8.50;;;2.90;99.90;;;;;;5074365;28;20238;-79
2022/12/02 12:18:44;;;;;;;8.60;8.40;;;3.00;99.90;;;;;;5074450;28;20299;-79
2022/12/02 12:21:14;;;;;;;8.70;8.50;;;3.10;99.90;;;;;;5074194;28;20230;-79
2022/12/02 12:23:46;;;;;;;9.10;8.80;;;3.10;99.90;;;;;;5067122;28;20326;-79
2022/12/02 12:26:34;;;;;;;8.63;8.43;;;3.00;99.90;;;;;;5064983;28;20258;-79
2022/12/02 12:29:05;;;;;;;8.60;8.40;;;2.90;99.90;;;;;;5065239;28;20235;-80
2022/12/02 12:31:34;;;;;;;8.63;8.43;;;2.90;99.90;;;;;;5067680;28;20237;-80
2022/12/02 12:34:04;;;;;;;8.40;8.20;;;2.80;99.90;;;;;;5071630;28;20270;-80
2022/12/02 12:36:40;;;;;;;8.60;8.40;;;2.80;99.90;;;;;;5070358;28;20226;-80
2022/12/02 12:39:08;;;;;;;8.60;8.40;;;2.90;99.90;;;;;;5074387;28;20222;-80
2022/12/02 12:41:36;;;;;;;8.27;8.07;;;3.00;99.90;;;;;;5073169;28;20238;-80
2022/12/02 12:44:04;;;;;;;8.40;8.20;;;3.00;99.90;;;;;;5071583;28;20297;-80
2022/12/02 12:46:34;;;;;;;8.20;8.00;;;3.10;99.90;;;;;;5066068;28;20239;-80
2022/12/02 12:49:01;;;;;;;8.20;8.00;;;3.00;99.90;;;;;;5064312;28;20236;-79
2022/12/02 12:51:29;;;;;;;8.20;8.00;;;2.90;99.90;;;;;;5061548;28;20258;-80
2022/12/02 12:53:57;;;;;;;8.03;7.83;;;2.90;99.90;;;;;;5060848;28;20226;-78
2022/12/02 12:56:24;;;;;;;8.43;8.23;;;2.80;99.90;;;;;;5059948;28;20231;-78
2022/12/02 12:58:52;;;;;;;7.83;7.63;;;2.80;99.90;;;;;;5060464;28;20258;-79
2022/12/02 13:01:19;;;;;;;8.30;8.10;;;2.70;99.90;;;;;;5063326;28;20250;-79
2022/12/02 13:03:49;;;;;;;8.10;7.90;;;2.60;99.90;;;;;;5071729;28;20215;-79
2022/12/02 13:06:16;;;;;;;8.10;7.90;;;2.60;99.90;;;;;;5064535;28;20266;-80
2022/12/02 13:08:44;;;;;;;7.90;7.70;;;2.60;99.90;;;;;;5059292;28;20234;-79
2022/12/02 13:11:11;;;;;;;7.90;7.70;;;2.60;99.90;;;;;;5060541;28;20259;-79
2022/12/02 13:13:39;;;;;;;7.80;7.60;;;2.60;99.90;;;;;;5061205;28;20230;-79
2022/12/02 13:16:07;;;;;;;7.73;7.53;;;2.60;99.90;;;;;;5058196;28;20270;-79
2022/12/02 13:18:34;;;;;;;7.80;7.60;;;2.60;99.90;;;;;;5059361;28;20230;-79
2022/12/02 13:21:04;;;;;;;7.40;7.20;;;2.60;99.90;;;;;;5055514;28;20238;-79
2022/12/02 13:23:32;;;;;;;8.00;7.80;;;2.60;99.90;;;;;;5057388;28;20235;-78
2022/12/02 13:25:59;;;;;;;7.63;7.43;;;2.50;99.90;;;;;;5058730;28;20298;-80
2022/12/02 13:28:27;;;;;;;7.80;7.60;;;2.40;99.90;;;;;;5059964;28;20231;-79
2022/12/02 13:30:55;;;;;;;7.50;7.30;;;2.40;99.90;;;;;;5058931;28;20245;-79